TAF and METAR

Decoding for American and Canadian METARs and TAFs is not fully implemented.

Could not understand the following METAR

CYYU 192100Z 15012G21KT 15SM FEW120 BKN130 BKN250 11/05 A2973 RMK AC2AC4CI1 VIRGA SLP079

TAF for Kapuskasing Airport

TAF CYYU 191938Z 1920/2008 15012G22KT P6SM SCT140 BKN240 BECMG 1922/1924 17010KT FM200600 18008KT P6SM BKN040 BKN120 RMK NXT FCST BY 200200Z
Report created 19. okt 21:38

between 19. okt 22:00 - 20. okt 10:00

wind 12 knots from SSE (150°) with gusts up to 22 knots